createdAt,value
2023-04-16T05:06:00.242Z,101611.22
2023-04-16T05:07:05.910Z,101602.44
2023-04-16T05:12:49.708Z,101613.63
2023-04-16T06:05:32.224Z,101606.97
2023-04-16T06:07:30.824Z,101603.41
2023-04-16T06:08:36.415Z,101611.81
2023-04-16T06:09:38.731Z,101609.94
2023-04-16T06:10:43.427Z,101598.88
2023-04-16T06:11:46.185Z,101601.28
2023-04-16T06:12:48.687Z,101598.38
2023-04-16T06:13:51.644Z,101604.88
2023-04-16T06:14:55.663Z,101598.94
2023-04-16T06:15:58.011Z,101600.66
2023-04-16T06:17:01.275Z,101601.41
2023-04-16T06:18:03.538Z,101607.78
2023-04-16T06:19:05.824Z,101602.13
2023-04-16T06:20:08.840Z,101606.91
2023-04-16T06:21:11.831Z,101606.69
2023-04-16T06:22:14.724Z,101601.88
2023-04-16T06:23:16.632Z,101597.31
2023-04-16T06:24:18.668Z,101599.56
2023-04-16T06:25:20.870Z,101595.63
2023-04-16T06:26:32.085Z,101591.38
2023-04-16T06:27:34.095Z,101596.47
2023-04-16T06:28:36.137Z,101600.28
2023-04-16T06:29:41.404Z,101592.41
2023-04-16T06:30:44.765Z,101581.09
2023-04-16T06:31:52.851Z,101588.31
2023-04-16T06:32:56.602Z,101596.91
2023-04-16T06:33:58.596Z,101592.63
2023-04-16T06:35:00.746Z,101594.91
2023-04-16T06:36:03.256Z,101597.78
2023-04-16T06:37:09.049Z,101602.97
2023-04-16T06:38:12.561Z,101602.88
2023-04-16T06:39:14.551Z,101596.16
2023-04-16T06:40:16.716Z,101585.56
2023-04-16T06:41:23.897Z,101591.78
2023-04-16T06:42:26.477Z,101596.66
2023-04-16T06:43:29.939Z,101589.78
2023-04-16T06:44:31.896Z,101590.03
2023-04-16T06:45:34.822Z,101590.53
2023-04-16T06:46:37.863Z,101590.84
2023-04-16T06:47:39.869Z,101583.59
2023-04-16T06:48:41.861Z,101582.59
2023-04-16T06:49:43.868Z,101582.84
2023-04-16T06:50:46.251Z,101584.09
2023-04-16T06:51:48.429Z,101583.84
2023-04-16T06:52:50.749Z,101577.84
2023-04-16T06:53:53.018Z,101576.34
2023-04-16T06:54:55.413Z,101580.66
2023-04-16T06:55:57.528Z,101574.25
2023-04-16T06:56:59.748Z,101578.50
2023-04-16T06:58:01.906Z,101588.03
2023-04-16T06:59:04.703Z,101583.69
2023-04-16T07:00:09.412Z,101570.03
2023-04-16T07:01:11.550Z,101571.03
2023-04-16T07:02:13.989Z,101572.81
2023-04-16T07:03:16.812Z,101568.69
2023-04-16T07:04:18.913Z,101571.25
2023-04-16T07:05:21.240Z,101565.22
2023-04-16T07:06:23.306Z,101572.06
2023-04-16T07:07:25.408Z,101565.19
2023-04-16T07:08:29.221Z,101562.50
2023-04-16T07:09:31.346Z,101568.81
2023-04-16T07:10:33.663Z,101566.66
2023-04-16T07:11:40.942Z,101573.88
2023-04-16T07:12:43.279Z,101568.69
2023-04-16T07:13:45.816Z,101561.06
2023-04-16T07:14:48.206Z,101570.00
2023-04-16T07:15:52.310Z,101574.31
2023-04-16T07:16:57.736Z,101563.88
2023-04-16T07:18:00.151Z,101570.69
2023-04-16T07:19:02.305Z,101570.91
2023-04-16T07:20:06.598Z,101567.28
2023-04-16T07:21:08.953Z,101559.09
2023-04-16T07:22:18.629Z,101567.59
2023-04-16T07:23:20.718Z,101561.44
2023-04-16T07:24:25.981Z,101564.72
2023-04-16T07:25:27.969Z,101553.75
2023-04-16T07:26:34.914Z,101556.03
2023-04-16T07:27:37.287Z,101563.22
2023-04-16T07:28:39.330Z,101563.09
2023-04-16T07:29:41.438Z,101559.63
2023-04-16T07:30:44.030Z,101559.19
2023-04-16T07:31:46.628Z,101572.03
2023-04-16T07:32:49.026Z,101563.19
2023-04-16T07:33:53.297Z,101563.22
2023-04-16T07:34:58.282Z,101556.38
2023-04-16T07:36:02.049Z,101553.59
2023-04-16T07:37:04.383Z,101545.59
2023-04-16T07:38:06.421Z,101550.56
2023-04-16T07:39:09.136Z,101553.22
2023-04-16T07:40:11.926Z,101550.38
2023-04-16T07:41:15.451Z,101550.41
2023-04-16T07:42:19.739Z,101546.53
2023-04-16T07:43:22.005Z,101552.94
2023-04-16T07:44:24.140Z,101557.00
2023-04-16T07:45:26.785Z,101562.81
2023-04-16T07:46:43.543Z,101552.47
2023-04-16T07:47:49.306Z,101546.41
2023-04-16T07:48:52.066Z,101548.59
2023-04-16T07:49:54.500Z,101550.66
2023-04-16T07:50:58.047Z,101548.09
2023-04-16T07:52:04.199Z,101566.03
2023-04-16T07:53:10.131Z,101545.41
2023-04-16T07:54:13.216Z,101545.19
2023-04-16T08:02:39.545Z,101547.84
2023-04-16T08:34:45.861Z,101517.16
2023-04-16T08:35:57.911Z,101509.44
2023-04-16T08:37:11.160Z,101506.28
2023-04-16T08:38:21.868Z,101521.56
2023-04-16T08:39:24.387Z,101523.88
2023-04-16T08:40:29.835Z,101502.63
2023-04-16T08:41:35.161Z,101504.47
2023-04-16T14:31:35.834Z,101223.38
2023-04-16T16:36:32.366Z,101193.31
2023-04-16T16:42:23.861Z,101207.13
